Time;durP1;ratioP1;P1;durP2;ratioP2;P2;SDS_P1;SDS_P2;PMS_P1;PMS_P2;Temp;Humidity;BMP_temperature;BMP_pressure;BME280_temperature;BME280_humidity;BME280_pressure;Samples;Min_cycle;Max_cycle;Signal;HPM_P1;HPM_P2
2024/03/20 00:00:36;;;;;;;5.60;2.80;;;;;;;-145.69;74.02;52448.34;5135053;27;20256;-79
2024/03/20 00:03:03;;;;;;;4.50;2.90;;;;;;;-145.69;74.15;52398.84;5130721;27;20193;-79
2024/03/20 00:05:29;;;;;;;8.37;2.80;;;;;;;-145.69;74.13;52428.53;5114143;28;20202;-80
2024/03/20 00:07:57;;;;;;;6.10;2.67;;;;;;;-145.69;73.93;52428.53;5114102;28;20737;-79
2024/03/20 00:10:24;;;;;;;8.13;2.50;;;;;;;-145.69;73.57;52408.75;5114292;28;20205;-79
2024/03/20 00:12:51;;;;;;;4.40;2.70;;;;;;;-145.69;73.99;52428.53;5114267;28;20250;-79
2024/03/20 00:15:17;;;;;;;6.30;2.87;;;;;;;-145.69;74.35;52430.53;5114401;28;20205;-79
2024/03/20 00:17:47;;;;;;;6.13;2.80;;;;;;;-145.69;74.01;52428.53;5116815;27;20205;-79
2024/03/20 00:20:13;;;;;;;3.90;2.37;;;;;;;-145.69;73.95;52434.47;5133158;27;20225;-79
2024/03/20 00:22:40;;;;;;;5.83;2.97;;;;;;;-145.69;74.56;52412.69;5134581;27;20201;-79
2024/03/20 00:25:09;;;;;;;6.17;2.83;;;;;;;-145.69;74.84;52440.44;5134334;27;20203;-80
2024/03/20 00:27:35;;;;;;;7.73;2.77;;;;;;;-145.69;74.34;52416.66;5134603;27;20207;-80
2024/03/20 00:30:02;;;;;;;9.20;2.40;;;;;;;-145.69;74.27;52432.50;5117247;27;20194;-79
2024/03/20 00:32:29;;;;;;;4.97;2.67;;;;;;;-145.69;74.44;52424.59;5114055;28;20198;-79
2024/03/20 00:34:55;;;;;;;3.87;2.40;;;;;;;-145.69;74.14;52434.47;5113982;28;20205;-79
2024/03/20 00:37:22;;;;;;;5.87;2.77;;;;;;;-145.69;74.71;52434.47;5113423;28;20197;-79
2024/03/20 00:39:48;;;;;;;7.97;2.77;;;;;;;-145.69;74.48;52458.25;5113147;28;20220;-79
2024/03/20 00:42:16;;;;;;;6.23;2.53;;;;;;;-145.69;74.83;52412.69;5113460;28;20216;-80
2024/03/20 00:44:42;;;;;;;3.87;2.80;;;;;;;-145.69;75.28;52422.59;5113034;28;20204;-80
2024/03/20 00:47:09;;;;;;;5.00;3.07;;;;;;;-145.69;74.47;52398.84;5113627;28;20205;-79
2024/03/20 00:49:35;;;;;;;9.13;2.83;;;;;;;-145.69;74.96;52442.41;5131741;27;20208;-80
2024/03/20 00:52:02;;;;;;;7.13;2.80;;;;;;;-145.69;74.09;52428.53;5133945;27;20232;-79
2024/03/20 00:54:28;;;;;;;5.60;2.60;;;;;;;-145.69;74.12;52420.63;5133762;27;20670;-79
2024/03/20 00:56:54;;;;;;;7.40;3.07;;;;;;;-145.69;74.63;52434.47;5133839;27;20192;-79
2024/03/20 00:59:22;;;;;;;3.73;2.20;;;;;;;-145.69;75.16;52428.53;5133869;27;20270;-80
2024/03/20 01:01:49;;;;;;;5.70;2.60;;;;;;;-145.69;75.08;52416.66;5133760;27;20208;-80
2024/03/20 01:04:16;;;;;;;7.33;2.87;;;;;;;-145.69;75.71;52440.44;5130449;27;20193;-79
2024/03/20 01:06:43;;;;;;;4.57;2.87;;;;;;;-145.69;75.38;52426.56;5112860;28;20202;-79
2024/03/20 01:09:10;;;;;;;5.07;2.87;;;;;;;-145.69;76.29;52420.63;5113227;28;20220;-79
2024/03/20 01:11:36;;;;;;;6.23;2.43;;;;;;;-145.69;75.99;52438.44;5113177;28;20655;-79
2024/03/20 01:14:03;;;;;;;5.23;2.37;;;;;;;-145.69;76.26;52430.53;5104683;28;20202;-79
2024/03/20 01:16:31;;;;;;;5.70;2.70;;;;;;;-145.69;75.29;52470.13;5092571;28;20201;-79
2024/03/20 01:18:58;;;;;;;5.33;2.43;;;;;;;-145.69;75.82;52432.50;5105364;28;20193;-80
2024/03/20 01:21:24;;;;;;;3.77;2.50;;;;;;;-145.69;75.44;52424.59;5112959;28;20237;-79
2024/03/20 01:23:53;;;;;;;3.17;2.33;;;;;;;-145.69;75.33;52436.47;5113172;28;20208;-78
2024/03/20 01:26:21;;;;;;;4.27;2.77;;;;;;;-145.69;76.51;52418.63;5113057;28;20201;-79
2024/03/20 01:28:48;;;;;;;4.03;2.67;;;;;;;-145.69;76.06;52408.75;5112951;28;20212;-78
2024/03/20 01:31:15;;;;;;;5.60;2.30;;;;;;;-145.69;75.59;52444.38;5113125;28;20205;-79
2024/03/20 01:33:42;;;;;;;5.00;2.70;;;;;;;-145.69;75.77;52402.78;5112382;28;20197;-79
2024/03/20 01:36:09;;;;;;;5.93;2.47;;;;;;;-145.69;75.62;52438.44;5112483;28;20204;-79
2024/03/20 01:38:35;;;;;;;6.80;2.77;;;;;;;-145.69;75.42;52420.63;5112099;28;20672;-81
2024/03/20 01:41:02;;;;;;;11.23;2.87;;;;;;;-145.69;75.35;52444.38;5112802;28;20235;-81
2024/03/20 01:43:28;;;;;;;4.50;2.47;;;;;;;-145.69;74.58;52436.47;5112740;28;20205;-81
2024/03/20 01:45:55;;;;;;;5.13;2.53;;;;;;;-145.69;75.40;52412.69;5112859;28;20212;-80
2024/03/20 01:48:21;;;;;;;4.37;2.40;;;;;;;-145.69;76.36;52424.59;5120017;28;20188;-81
2024/03/20 01:50:49;;;;;;;5.00;2.20;;;;;;;-145.69;75.76;52414.69;5121349;28;20225;-80
2024/03/20 01:53:17;;;;;;;6.63;2.40;;;;;;;-145.69;75.87;52414.69;5112970;28;20330;-80
2024/03/20 01:55:44;;;;;;;6.07;2.70;;;;;;;-145.69;75.26;52436.47;5112872;28;20760;-80
2024/03/20 01:58:10;;;;;;;5.47;2.73;;;;;;;-145.69;75.57;52420.63;5112293;28;20679;-79
2024/03/20 02:00:37;;;;;;;12.20;2.57;;;;;;;-145.69;74.73;52428.53;5112674;28;20744;-79
2024/03/20 02:03:05;;;;;;;4.87;2.50;;;;;;;-145.69;75.05;52424.59;5112170;28;20202;-81
2024/03/20 02:05:32;;;;;;;6.13;2.57;;;;;;;-145.69;75.81;52454.28;5113069;28;20293;-80
2024/03/20 02:08:00;;;;;;;6.30;2.40;;;;;;;-145.69;75.72;52426.56;5116703;28;20213;-81
2024/03/20 02:10:26;;;;;;;5.80;2.83;;;;;;;-145.69;75.73;52412.69;5116800;28;20205;-81
2024/03/20 02:13:02;;;;;;;5.73;2.40;;;;;;;-145.69;75.51;52442.41;5116385;28;20556;-80
2024/03/20 02:15:28;;;;;;;9.47;3.03;;;;;;;-145.69;75.50;52438.44;5115989;28;20626;-82
2024/03/20 02:17:56;;;;;;;3.77;2.40;;;;;;;-145.69;76.18;52416.66;5119724;27;20223;-80
2024/03/20 02:20:22;;;;;;;4.10;2.70;;;;;;;-145.69;75.87;52404.78;5130369;27;20226;-80
2024/03/20 02:22:50;;;;;;;8.00;2.47;;;;;;;-145.69;75.78;52430.53;5116062;28;20652;-80
2024/03/20 02:25:16;;;;;;;5.13;2.70;;;;;;;-145.69;75.91;52420.63;5116529;28;20198;-79
2024/03/20 02:27:42;;;;;;;6.30;2.87;;;;;;;-145.69;75.52;52416.66;5116369;28;20225;-80
2024/03/20 02:30:12;;;;;;;7.27;2.73;;;;;;;-145.69;75.31;52438.44;5116428;28;20202;-81
2024/03/20 02:32:39;;;;;;;7.33;2.67;;;;;;;-145.69;75.65;52462.22;5115984;28;20205;-80
2024/03/20 02:35:06;;;;;;;3.10;2.40;;;;;;;-145.69;75.72;52462.22;5115865;28;20734;-81
2024/03/20 02:37:33;;;;;;;6.50;2.90;;;;;;;-145.69;75.97;52428.53;5116133;28;20266;-81
2024/03/20 02:40:00;;;;;;;2.93;2.40;;;;;;;-145.69;76.09;52448.34;5115793;28;20205;-81
2024/03/20 02:42:27;;;;;;;4.53;2.43;;;;;;;-145.69;75.84;52420.63;5116074;28;20201;-80
2024/03/20 02:44:54;;;;;;;5.00;2.37;;;;;;;-145.69;75.42;52434.47;5116463;28;20197;-80
2024/03/20 02:47:20;;;;;;;4.63;2.37;;;;;;;-145.69;75.67;52432.50;5115386;28;20194;-80
2024/03/20 02:49:47;;;;;;;5.10;2.30;;;;;;;-145.69;76.31;52432.50;5134421;27;20197;-80
2024/03/20 02:52:14;;;;;;;5.63;2.63;;;;;;;-145.69;76.23;52400.81;5121350;27;20298;-80
2024/03/20 02:54:40;;;;;;;4.47;2.37;;;;;;;-145.69;75.65;52428.53;5115856;28;20197;-79
2024/03/20 02:57:08;;;;;;;3.20;2.40;;;;;;;-145.69;76.13;52450.31;5115428;28;20652;-79
2024/03/20 02:59:34;;;;;;;3.90;2.10;;;;;;;-145.69;75.27;52456.28;5115939;28;20193;-80
2024/03/20 03:02:01;;;;;;;7.27;2.80;;;;;;;-145.69;76.54;52480.03;5115636;28;20233;-79
2024/03/20 03:04:27;;;;;;;4.43;2.47;;;;;;;-145.69;76.08;52430.53;5115611;28;20560;-80
2024/03/20 03:06:54;;;;;;;3.43;2.33;;;;;;;-145.69;76.49;52438.44;5115298;28;20205;-79
2024/03/20 03:09:21;;;;;;;4.00;2.50;;;;;;;-145.69;76.68;52408.75;5115536;28;20613;-80
2024/03/20 03:11:47;;;;;;;3.40;2.37;;;;;;;-145.69;76.29;52406.75;5115534;28;20239;-80
2024/03/20 03:14:16;;;;;;;4.37;3.10;;;;;;;-145.69;76.47;52408.75;5113230;28;20259;-80
2024/03/20 03:16:43;;;;;;;7.53;2.70;;;;;;;-145.69;76.22;52438.44;5114957;28;20201;-80
2024/03/20 03:19:09;;;;;;;3.70;2.40;;;;;;;-145.69;77.06;52430.53;5114417;28;20201;-80
2024/03/20 03:21:37;;;;;;;6.33;2.90;;;;;;;-145.69;76.48;52420.63;5115117;28;20256;-79
2024/03/20 03:24:04;;;;;;;8.33;2.70;;;;;;;-145.69;76.10;52426.56;5114933;28;20292;-80
2024/03/20 03:26:31;;;;;;;6.60;2.73;;;;;;;-145.69;76.39;52440.44;5115013;28;20656;-79
2024/03/20 03:28:58;;;;;;;3.80;2.50;;;;;;;-145.69;76.68;52420.63;5115398;28;20201;-80
2024/03/20 03:31:26;;;;;;;6.70;2.50;;;;;;;-145.69;76.05;52424.59;5114978;28;20560;-79
2024/03/20 03:33:52;;;;;;;4.00;2.67;;;;;;;-145.69;76.26;52438.44;5114951;28;20652;-79
2024/03/20 03:36:19;;;;;;;6.10;3.07;;;;;;;-145.69;75.91;52418.63;5114977;28;20205;-79
2024/03/20 03:38:45;;;;;;;3.97;2.60;;;;;;;-145.69;76.41;52424.59;5114715;28;20545;-79
2024/03/20 03:41:12;;;;;;;6.40;2.83;;;;;;;-145.69;75.79;52410.72;5114523;28;20225;-80
2024/03/20 03:43:39;;;;;;;3.73;2.40;;;;;;;-145.69;75.81;52404.78;5114851;28;20236;-79
2024/03/20 03:46:05;;;;;;;3.90;2.40;;;;;;;-145.69;75.74;52448.34;5114258;28;20200;-80
2024/03/20 03:48:33;;;;;;;3.97;2.70;;;;;;;-145.69;75.60;52460.22;5114822;28;20206;-79
2024/03/20 03:51:00;;;;;;;6.07;2.73;;;;;;;-145.69;76.31;52448.34;5117321;27;20220;-79
2024/03/20 03:53:26;;;;;;;5.27;2.70;;;;;;;-145.69;76.53;52460.22;5135044;27;20196;-80
2024/03/20 03:55:53;;;;;;;4.37;2.60;;;;;;;-145.69;75.39;52456.28;5118264;27;20198;-80
2024/03/20 03:58:19;;;;;;;5.10;3.13;;;;;;;-145.69;74.91;52424.59;5114797;28;20204;-80
2024/03/20 04:00:46;;;;;;;5.37;2.90;;;;;;;-145.69;75.64;52460.22;5114214;28;20261;-80
2024/03/20 04:03:12;;;;;;;5.53;2.70;;;;;;;-145.69;75.62;52414.69;5114284;28;20201;-79
2024/03/20 04:05:40;;;;;;;12.33;3.53;;;;;;;-145.69;75.99;52444.38;5114414;28;20205;-80
2024/03/20 04:08:07;;;;;;;5.80;2.83;;;;;;;-145.69;75.40;52420.63;5114656;28;20205;-79
2024/03/20 04:10:33;;;;;;;9.53;3.33;;;;;;;-145.69;75.70;52456.28;5114163;28;20204;-80
2024/03/20 04:13:00;;;;;;;6.10;2.90;;;;;;;-145.69;74.90;52466.16;5114400;28;20194;-79
2024/03/20 04:15:27;;;;;;;3.17;2.40;;;;;;;-145.69;75.09;52408.75;5114300;28;20201;-80
2024/03/20 04:17:53;;;;;;;3.40;2.37;;;;;;;-145.69;75.29;52444.38;5114141;28;20262;-81
2024/03/20 04:20:20;;;;;;;4.17;2.50;;;;;;;-145.69;75.52;52456.28;5113375;28;20652;-80
2024/03/20 04:22:47;;;;;;;3.57;2.40;;;;;;;-145.69;75.67;52456.28;5131858;27;20193;-80
2024/03/20 04:25:14;;;;;;;5.20;2.70;;;;;;;-145.69;75.87;52410.72;5134929;27;20207;-79
2024/03/20 04:27:40;;;;;;;4.30;2.73;;;;;;;-145.69;75.66;52448.34;5134339;27;20217;-79
2024/03/20 04:30:12;;;;;;;5.30;2.93;;;;;;;-145.69;75.92;52444.38;5134276;27;20200;-79
2024/03/20 04:32:38;;;;;;;8.33;3.00;;;;;;;-145.69;75.61;52408.75;5134590;27;20200;-81
2024/03/20 04:35:07;;;;;;;6.83;2.90;;;;;;;-145.69;75.40;52416.66;5134446;27;20222;-79
2024/03/20 04:37:33;;;;;;;9.00;3.00;;;;;;;-145.69;75.70;52442.41;5134123;27;20651;-80
2024/03/20 04:40:02;;;;;;;6.40;3.13;;;;;;;-145.69;75.79;52444.38;5134001;27;20204;-80
2024/03/20 04:42:29;;;;;;;5.80;3.17;;;;;;;-145.69;75.74;52460.22;5134183;27;20347;-81
2024/03/20 04:44:55;;;;;;;4.83;3.00;;;;;;;-145.69;74.93;52444.38;5116266;27;20193;-79
2024/03/20 04:47:22;;;;;;;5.33;3.00;;;;;;;-145.69;75.03;52408.75;5113633;28;20202;-79
2024/03/20 04:49:47;;;;;;;4.33;2.57;;;;;;;-145.69;75.58;52420.63;5113531;28;20552;-79
2024/03/20 04:52:13;;;;;;;4.37;3.10;;;;;;;-145.69;76.15;52448.34;5113550;28;20229;-79
2024/03/20 04:54:40;;;;;;;8.80;3.30;;;;;;;-145.69;75.52;52444.38;5113218;28;20649;-80
2024/03/20 04:57:08;;;;;;;7.73;3.37;;;;;;;-145.69;75.65;52460.22;5113214;28;20201;-79
2024/03/20 04:59:34;;;;;;;5.20;3.17;;;;;;;-145.69;75.98;52404.78;5113566;28;20209;-80
2024/03/20 05:02:00;;;;;;;5.57;2.87;;;;;;;-145.69;75.96;52440.44;5113425;28;20687;-80
2024/03/20 05:04:27;;;;;;;8.10;3.20;;;;;;;-145.69;76.07;52400.81;5113673;28;20529;-80
2024/03/20 05:06:53;;;;;;;7.80;2.87;;;;;;;-145.69;75.89;52424.59;5113067;28;20197;-80
2024/03/20 05:09:20;;;;;;;9.00;3.17;;;;;;;-145.69;75.29;52436.47;5113160;28;20193;-80
2024/03/20 05:11:47;;;;;;;4.67;2.70;;;;;;;-145.69;75.30;52442.41;5113245;28;20194;-80
2024/03/20 05:14:15;;;;;;;7.93;3.27;;;;;;;-145.69;74.84;52416.66;5110863;28;20205;-80
2024/03/20 05:16:42;;;;;;;4.80;2.57;;;;;;;-145.69;75.15;52460.22;5112613;28;20201;-80
2024/03/20 05:19:07;;;;;;;11.50;3.50;;;;;;;-145.69;75.38;52408.75;5113336;28;20201;-80
2024/03/20 05:21:34;;;;;;;11.00;3.43;;;;;;;-145.69;75.68;52428.53;5113105;28;20576;-80
2024/03/20 05:23:59;;;;;;;6.20;3.30;;;;;;;-145.69;75.71;52440.44;5113290;28;20201;-80
2024/03/20 05:26:26;;;;;;;4.63;2.80;;;;;;;-145.69;75.71;52452.31;5113236;28;20220;-79
2024/03/20 05:28:51;;;;;;;7.53;2.73;;;;;;;-145.69;76.11;52462.22;5112923;28;20231;-79
2024/03/20 05:31:28;;;;;;;3.93;2.70;;;;;;;-145.69;75.59;52432.50;5092310;28;20194;-80
2024/03/20 05:33:53;;;;;;;8.20;2.43;;;;;;;-145.69;75.52;52444.38;5092440;28;20200;-80
2024/03/20 05:36:20;;;;;;;5.60;2.90;;;;;;;-145.69;76.31;52444.38;5093013;28;20202;-79
2024/03/20 05:38:45;;;;;;;5.50;3.10;;;;;;;-145.69;76.43;52400.81;5092744;28;20197;-79
2024/03/20 05:41:12;;;;;;;5.33;3.10;;;;;;;-145.69;76.63;52414.69;5094380;28;20223;-80
2024/03/20 05:43:37;;;;;;;4.87;2.70;;;;;;;-145.69;76.98;52440.44;5106449;27;20208;-79
2024/03/20 05:46:04;;;;;;;4.93;2.90;;;;;;;-145.69;76.06;52440.44;5116833;28;20197;-79
2024/03/20 05:48:32;;;;;;;7.73;3.13;;;;;;;-145.69;76.66;52444.38;5117219;28;20666;-80
2024/03/20 05:50:58;;;;;;;5.40;2.60;;;;;;;-145.69;76.09;52412.69;5116805;28;20228;-79
2024/03/20 05:53:24;;;;;;;4.93;2.63;;;;;;;-145.69;75.71;52462.22;5116314;28;20656;-79
2024/03/20 05:55:50;;;;;;;12.20;2.87;;;;;;;-145.69;75.56;52434.47;5116671;28;20556;-79
2024/03/20 05:58:16;;;;;;;7.00;2.87;;;;;;;-145.69;75.81;52424.59;5116993;28;20202;-79
2024/03/20 06:00:42;;;;;;;6.13;2.90;;;;;;;-145.69;74.87;52428.53;5116534;28;20197;-78
2024/03/20 06:03:09;;;;;;;6.83;3.00;;;;;;;-145.69;75.10;52420.63;5117014;28;20205;-79
2024/03/20 06:05:35;;;;;;;5.40;2.93;;;;;;;-145.69;75.77;52424.59;5116879;28;20211;-79
2024/03/20 06:08:02;;;;;;;12.10;3.27;;;;;;;-145.69;75.74;52444.38;5117071;28;20201;-80
2024/03/20 06:10:28;;;;;;;7.00;3.13;;;;;;;-145.69;76.51;52418.63;5116562;28;20201;-79
2024/03/20 06:12:55;;;;;;;5.27;2.67;;;;;;;-145.69;75.97;52460.22;5116314;28;20655;-79
2024/03/20 06:15:20;;;;;;;6.80;3.30;;;;;;;-145.69;76.39;52420.63;5116531;28;20555;-80
2024/03/20 06:17:47;;;;;;;3.90;2.37;;;;;;;-145.69;76.35;52420.63;5116358;28;20194;-79
2024/03/20 06:20:13;;;;;;;8.40;2.63;;;;;;;-145.69;76.48;52448.34;5116109;28;20193;-80
2024/03/20 06:22:41;;;;;;;5.63;2.63;;;;;;;-145.69;76.21;52414.69;5116506;28;20269;-80
2024/03/20 06:25:07;;;;;;;7.40;2.43;;;;;;;-145.69;76.12;52462.22;5116263;28;20208;-80
2024/03/20 06:27:34;;;;;;;7.00;2.67;;;;;;;-145.69;76.61;52438.44;5116516;28;20556;-80
2024/03/20 06:30:00;;;;;;;8.77;2.50;;;;;;;-145.69;76.76;52446.38;5116376;28;20721;-80
2024/03/20 06:32:28;;;;;;;4.73;2.60;;;;;;;-145.69;77.32;52420.63;5115883;28;20201;-80
2024/03/20 06:34:53;;;;;;;6.93;2.70;;;;;;;-145.69;77.26;52424.59;5116074;28;20243;-79
2024/03/20 06:37:20;;;;;;;10.67;2.97;;;;;;;-145.69;77.15;52462.22;5116047;28;20197;-81
2024/03/20 06:39:46;;;;;;;8.57;3.10;;;;;;;-145.69;76.97;52442.41;5116078;28;20201;-81
2024/03/20 06:42:16;;;;;;;8.77;2.60;;;;;;;-145.69;76.96;52430.53;5116119;28;20229;-79
2024/03/20 06:44:42;;;;;;;4.90;2.47;;;;;;;-145.69;76.91;52394.88;5115345;28;20666;-80
2024/03/20 06:47:08;;;;;;;6.67;2.40;;;;;;;-145.69;76.75;52422.59;5116189;28;20194;-80
2024/03/20 06:49:34;;;;;;;6.33;2.50;;;;;;;-145.69;76.73;52412.69;5116079;28;20572;-79
2024/03/20 06:52:01;;;;;;;6.63;2.40;;;;;;;-145.69;76.66;52416.66;5114962;28;20311;-80
2024/03/20 06:54:26;;;;;;;3.67;2.57;;;;;;;-145.69;75.98;52420.63;5115832;28;20201;-80
2024/03/20 06:56:58;;;;;;;3.93;2.10;;;;;;;-145.69;76.29;52410.72;5115874;28;20213;-79
2024/03/20 06:59:24;;;;;;;8.30;2.67;;;;;;;-145.69;75.92;52410.72;5116095;28;20564;-80
2024/03/20 07:01:50;;;;;;;6.93;2.40;;;;;;;-145.69;75.68;52426.56;5115205;28;20225;-79
2024/03/20 07:04:16;;;;;;;3.03;2.10;;;;;;;-145.69;75.77;52416.66;5115532;28;20197;-80
2024/03/20 07:06:42;;;;;;;5.47;2.03;;;;;;;-145.69;75.16;52410.72;5115755;28;20197;-81
2024/03/20 07:09:08;;;;;;;4.13;1.80;;;;;;;-145.69;74.17;52406.75;5115183;28;20197;-80
2024/03/20 07:11:35;;;;;;;2.50;1.87;;;;;;;-145.69;74.47;52404.78;5112054;28;20207;-79
2024/03/20 07:14:01;;;;;;;3.13;1.73;;;;;;;-145.69;73.03;52418.63;5115481;28;20208;-82
2024/03/20 07:16:28;;;;;;;3.23;2.00;;;;;;;-145.69;72.34;52404.78;5115646;28;20584;-82
2024/03/20 07:18:53;;;;;;;5.07;2.10;;;;;;;-145.69;69.21;52416.66;5115601;28;20201;-81
2024/03/20 07:21:20;;;;;;;3.83;1.90;;;;;;;-145.69;68.41;52390.91;5115384;28;20575;-81
2024/03/20 07:23:46;;;;;;;2.67;1.80;;;;;;;-145.69;67.38;52361.22;5114923;28;20652;-81
2024/03/20 07:26:12;;;;;;;2.43;1.50;;;;;;;-145.69;68.62;52377.06;5115244;28;20208;-80
2024/03/20 07:28:40;;;;;;;2.50;1.57;;;;;;;-145.69;67.77;52373.09;5115098;28;20598;-81
2024/03/20 07:31:08;;;;;;;2.03;1.60;;;;;;;-145.69;65.68;52379.03;5114880;28;20611;-82
2024/03/20 07:33:33;;;;;;;2.73;1.47;;;;;;;-145.69;65.86;52373.09;5115091;28;20204;-80
2024/03/20 07:36:00;;;;;;;3.73;1.60;;;;;;;-145.69;67.63;52323.59;5115106;28;20201;-81
2024/03/20 07:38:26;;;;;;;3.80;1.40;;;;;;;-145.69;64.68;52361.22;5114811;28;20204;-81
2024/03/20 07:40:53;;;;;;;1.63;1.38;;;;;;;-145.69;64.44;52343.38;5115048;28;20201;-81
2024/03/20 07:43:18;;;;;;;1.98;1.30;;;;;;;-145.69;62.84;52361.22;5114706;27;20232;-81
2024/03/20 07:45:45;;;;;;;1.85;1.10;;;;;;;-145.69;60.18;52361.22;5114305;28;20193;-81
2024/03/20 07:48:12;;;;;;;2.42;1.10;;;;;;;-145.69;60.91;52333.47;5114717;28;20536;-81
2024/03/20 07:50:38;;;;;;;1.65;1.48;;;;;;;-145.69;63.17;52309.72;5114605;28;20274;-82
2024/03/20 07:53:04;;;;;;;1.60;1.20;;;;;;;-145.69;54.67;52321.59;5114416;28;20333;-81
2024/03/20 07:55:31;;;;;;;3.03;1.35;;;;;;;-145.69;52.11;52313.69;5114021;28;20210;-81
2024/03/20 07:57:56;;;;;;;0.98;0.90;;;;;;;-145.69;51.86;52297.84;5114403;28;20204;-81
2024/03/20 08:00:28;;;;;;;5.18;0.90;;;;;;;-145.69;50.49;52321.59;5114769;28;20201;-81
2024/03/20 08:02:53;;;;;;;1.25;0.70;;;;;;;-145.69;50.95;52299.81;5114387;28;20228;-82
2024/03/20 08:05:21;;;;;;;0.70;0.70;;;;;;;-145.69;48.46;52297.84;5113941;27;20200;-81
2024/03/20 08:07:47;;;;;;;1.20;0.90;;;;;;;-145.69;46.56;52254.28;5114625;28;20201;-81
2024/03/20 08:10:13;;;;;;;0.90;0.73;;;;;;;-145.69;46.31;52295.84;5114503;28;20208;-81
2024/03/20 08:12:39;;;;;;;1.95;0.90;;;;;;;-145.69;45.82;52244.38;5114492;28;20197;-80
2024/03/20 08:15:07;;;;;;;1.80;1.00;;;;;;;-145.69;45.85;52289.91;5114329;28;20199;-80
2024/03/20 08:17:33;;;;;;;4.18;1.02;;;;;;;-145.69;45.01;52291.91;5114310;28;20194;-80
2024/03/20 08:19:59;;;;;;;1.40;0.63;;;;;;;-145.69;43.71;52301.81;5113755;28;20652;-82
2024/03/20 08:22:26;;;;;;;1.90;1.05;;;;;;;-145.69;44.58;52254.28;5113801;28;20632;-80
2024/03/20 08:24:52;;;;;;;2.13;1.10;;;;;;;-145.69;44.38;52256.25;5114075;28;20197;-81
2024/03/20 08:27:24;;;;;;;0.80;0.55;;;;;;;-145.69;44.68;52282.00;5114068;28;20209;-80
2024/03/20 08:29:51;;;;;;;1.90;0.85;;;;;;;-145.69;44.05;52297.84;5114053;28;20236;-81
2024/03/20 08:32:16;;;;;;;1.08;0.80;;;;;;;-145.69;43.54;52266.16;5113822;28;20204;-81
2024/03/20 08:34:43;;;;;;;2.10;0.82;;;;;;;-145.69;43.06;52266.16;5113279;28;20197;-80
2024/03/20 08:37:09;;;;;;;1.65;0.80;;;;;;;-145.69;43.29;52270.13;5113809;28;20197;-80
2024/03/20 08:39:37;;;;;;;1.17;0.82;;;;;;;-145.69;42.39;52264.16;5113596;28;20204;-80
2024/03/20 08:42:03;;;;;;;1.17;0.80;;;;;;;-145.69;42.26;52244.38;5113941;28;20225;-81
2024/03/20 08:44:29;;;;;;;1.05;0.80;;;;;;;-145.69;41.75;52242.38;5113931;28;20289;-82
2024/03/20 08:46:55;;;;;;;1.83;0.70;;;;;;;-145.69;42.03;52244.38;5113535;28;20189;-81
2024/03/20 08:49:21;;;;;;;1.52;0.80;;;;;;;-145.69;42.72;52278.03;5113783;28;20201;-81
2024/03/20 08:51:47;;;;;;;4.72;0.82;;;;;;;-145.69;40.74;52272.09;5113126;28;20233;-82
2024/03/20 08:54:14;;;;;;;0.65;0.55;;;;;;;-145.69;41.24;52250.31;5113593;28;20197;-81
2024/03/20 08:56:41;;;;;;;1.67;0.60;;;;;;;-145.69;41.46;52244.38;5113512;28;20200;-81
2024/03/20 08:59:07;;;;;;;3.03;1.10;;;;;;;-145.69;41.64;52232.50;5113205;28;20201;-81
2024/03/20 09:01:33;;;;;;;0.85;0.63;;;;;;;-145.69;41.66;52254.28;5113458;28;20197;-81
2024/03/20 09:03:59;;;;;;;1.60;0.75;;;;;;;-145.69;41.16;52238.44;5113230;28;20714;-80
2024/03/20 09:06:25;;;;;;;1.77;0.65;;;;;;;-145.69;42.05;52238.44;5113341;28;20196;-80
2024/03/20 09:08:51;;;;;;;2.55;0.70;;;;;;;-145.69;39.85;52272.09;5113020;28;20197;-81
2024/03/20 09:11:17;;;;;;;0.93;0.50;;;;;;;-145.69;40.72;52224.56;5113112;28;20233;-80
2024/03/20 09:13:44;;;;;;;1.20;0.60;;;;;;;-145.69;38.98;52214.66;5105235;28;20256;-80
2024/03/20 09:16:10;;;;;;;0.85;0.70;;;;;;;-145.69;38.68;52226.53;5113014;28;20283;-80
2024/03/20 09:18:36;;;;;;;0.93;0.50;;;;;;;-145.69;38.04;52226.53;5113300;28;20250;-81
2024/03/20 09:21:02;;;;;;;2.80;0.70;;;;;;;-145.69;39.12;52226.53;5113299;28;20201;-80
2024/03/20 09:23:29;;;;;;;1.58;0.95;;;;;;;-145.69;39.82;52220.59;5113349;28;20579;-79
2024/03/20 09:25:54;;;;;;;2.42;0.75;;;;;;;-145.69;38.56;52210.72;5112539;28;20198;-80
2024/03/20 09:28:21;;;;;;;2.28;0.82;;;;;;;-145.69;38.73;52204.75;5113106;28;20205;-80
2024/03/20 09:30:48;;;;;;;1.23;0.80;;;;;;;-145.69;38.43;52196.84;5113044;28;20212;-80
2024/03/20 09:33:15;;;;;;;2.63;0.80;;;;;;;-145.69;40.14;52220.59;5113259;28;20258;-80
2024/03/20 09:35:40;;;;;;;1.88;0.90;;;;;;;-145.69;39.01;52242.38;5112555;28;20197;-80
2024/03/20 09:38:07;;;;;;;1.77;0.80;;;;;;;-145.69;39.98;52232.50;5112822;28;20556;-80
2024/03/20 09:40:33;;;;;;;1.50;0.82;;;;;;;-145.69;38.91;52236.44;5112997;28;20296;-79
2024/03/20 09:43:00;;;;;;;1.75;0.90;;;;;;;-145.69;38.91;52212.69;5112704;28;20422;-80
2024/03/20 09:45:25;;;;;;;0.63;0.50;;;;;;;-145.69;38.05;52232.50;5112658;28;20225;-80
2024/03/20 09:47:56;;;;;;;2.03;0.80;;;;;;;-145.69;38.14;52194.88;5113106;28;20266;-80
2024/03/20 09:50:23;;;;;;;0.60;0.50;;;;;;;-145.69;38.50;52173.09;5112155;27;20240;-79
2024/03/20 09:52:50;;;;;;;1.70;0.80;;;;;;;-145.69;38.00;52181.00;5092237;28;20198;-80
2024/03/20 09:55:17;;;;;;;1.77;0.60;;;;;;;-145.69;37.94;52206.75;5092252;28;20202;-80
2024/03/20 09:57:45;;;;;;;0.90;0.80;;;;;;;-145.69;37.61;52218.63;5092283;28;20672;-81
2024/03/20 10:00:14;;;;;;;1.88;0.77;;;;;;;-145.69;37.75;52206.75;5109772;28;20201;-78
2024/03/20 10:02:41;;;;;;;0.70;0.60;;;;;;;-145.69;37.24;52214.66;5112113;28;20232;-78
2024/03/20 10:05:12;;;;;;;1.00;0.60;;;;;;;-145.69;37.85;52206.75;5112700;28;20583;-79
2024/03/20 10:07:40;;;;;;;0.60;0.57;;;;;;;-145.69;37.36;52194.88;5112469;28;20251;-78
2024/03/20 10:10:08;;;;;;;1.25;0.60;;;;;;;-145.69;37.87;52206.75;5113706;28;20197;-79
2024/03/20 10:12:35;;;;;;;2.67;1.17;;;;;;;-145.69;36.96;52228.53;5111060;28;21001;-79
2024/03/20 10:15:05;;;;;;;5.25;1.30;;;;;;;-145.69;37.66;52194.88;5112499;28;20227;-79
2024/03/20 10:17:34;;;;;;;2.20;1.08;;;;;;;-145.69;37.46;52204.75;5093803;28;20209;-80
2024/03/20 10:20:00;;;;;;;4.00;1.00;;;;;;;-145.69;37.44;52198.81;5092257;28;20206;-79
2024/03/20 10:22:28;;;;;;;2.20;1.00;;;;;;;-145.69;36.73;52194.88;5091714;28;20233;-79
2024/03/20 10:24:53;;;;;;;2.20;0.70;;;;;;;-145.69;37.67;52179.03;5092153;28;20198;-79
2024/03/20 10:27:21;;;;;;;2.45;0.90;;;;;;;-145.69;36.78;52208.72;5093774;28;20665;-79
2024/03/20 10:29:47;;;;;;;0.90;0.70;;;;;;;-145.69;37.47;52177.03;5095783;28;20220;-79
2024/03/20 10:32:15;;;;;;;5.22;0.82;;;;;;;-145.69;36.08;52161.19;5095838;28;20194;-80
2024/03/20 10:34:44;;;;;;;3.80;0.90;;;;;;;-145.69;36.73;52204.75;5115496;28;20201;-79
2024/03/20 10:37:11;;;;;;;1.77;0.90;;;;;;;-145.69;36.74;52163.19;5115710;28;20283;-79
2024/03/20 10:39:39;;;;;;;0.88;0.60;;;;;;;-145.69;36.45;52179.03;5115662;28;20207;-79
2024/03/20 10:42:06;;;;;;;3.20;1.73;;;;;;;-145.69;35.59;52182.97;5115897;28;20687;-79
2024/03/20 10:44:32;;;;;;;3.47;1.00;;;;;;;-145.69;36.38;52155.25;5115861;28;20674;-81
2024/03/20 10:47:00;;;;;;;4.40;1.52;;;;;;;-145.69;36.01;52151.28;5115750;28;20201;-80
2024/03/20 10:49:25;;;;;;;4.88;1.60;;;;;;;-145.69;35.64;52198.81;5114399;28;20201;-80
2024/03/20 10:51:54;;;;;;;3.33;1.30;;;;;;;-145.69;36.16;52163.19;5095391;28;20233;-80
2024/03/20 10:54:20;;;;;;;3.65;1.40;;;;;;;-145.69;36.11;52139.41;5095377;28;20197;-79
2024/03/20 10:56:49;;;;;;;5.93;1.58;;;;;;;-145.69;35.20;52151.28;5095536;28;20213;-79
2024/03/20 10:59:19;;;;;;;5.60;1.73;;;;;;;-145.69;34.72;52137.44;5095223;28;20285;-80
2024/03/20 11:01:56;;;;;;;4.63;1.70;;;;;;;-145.69;34.19;52147.34;5095133;28;20198;-80
2024/03/20 11:04:33;;;;;;;5.22;1.58;;;;;;;-145.69;33.72;52179.03;5099744;28;20238;-80
2024/03/20 11:07:03;;;;;;;2.75;1.30;;;;;;;-145.69;33.54;52179.03;5109775;28;20202;-79
2024/03/20 11:09:31;;;;;;;3.28;1.20;;;;;;;-145.69;33.27;52143.38;5095340;28;20220;-79
2024/03/20 11:12:21;;;;;;;5.13;1.17;;;;;;;-145.69;33.79;52153.28;5095232;28;20202;-79
2024/03/20 11:14:47;;;;;;;2.75;1.00;;;;;;;-145.69;34.98;52157.25;5097543;28;20590;-79